sensor_id;sensor_type;location;lat;lon;timestamp;temperature;humidity
22738;DHT22;11536;50.860;4.286;2023-07-02T00:01:47;18.00;99.90
22738;DHT22;11536;50.860;4.286;2023-07-02T00:04:14;18.00;99.90
22738;DHT22;11536;50.860;4.286;2023-07-02T00:06:42;18.00;99.90
22738;DHT22;11536;50.860;4.286;2023-07-02T00:09:09;18.00;99.90
22738;DHT22;11536;50.860;4.286;2023-07-02T00:11:41;18.00;99.90
22738;DHT22;11536;50.860;4.286;2023-07-02T00:14:08;18.00;99.90
22738;DHT22;11536;50.860;4.286;2023-07-02T00:16:35;18.00;99.90
22738;DHT22;11536;50.860;4.286;2023-07-02T00:19:00;18.00;99.90
22738;DHT22;11536;50.860;4.286;2023-07-02T00:21:27;17.90;99.90
22738;DHT22;11536;50.860;4.286;2023-07-02T00:23:54;17.90;99.90
22738;DHT22;11536;50.860;4.286;2023-07-02T00:26:19;17.90;99.90
22738;DHT22;11536;50.860;4.286;2023-07-02T00:28:45;17.90;99.90
22738;DHT22;11536;50.860;4.286;2023-07-02T00:31:10;17.90;99.90
22738;DHT22;11536;50.860;4.286;2023-07-02T00:33:36;17.90;99.90
22738;DHT22;11536;50.860;4.286;2023-07-02T00:36:02;17.90;99.90
22738;DHT22;11536;50.860;4.286;2023-07-02T00:38:27;17.90;99.90
22738;DHT22;11536;50.860;4.286;2023-07-02T00:40:53;17.90;99.90
22738;DHT22;11536;50.860;4.286;2023-07-02T00:43:18;17.90;99.90
22738;DHT22;11536;50.860;4.286;2023-07-02T00:45:44;17.90;99.90
22738;DHT22;11536;50.860;4.286;2023-07-02T00:48:11;17.90;99.90
22738;DHT22;11536;50.860;4.286;2023-07-02T00:50:37;17.90;99.90
22738;DHT22;11536;50.860;4.286;2023-07-02T00:53:04;17.90;99.90
22738;DHT22;11536;50.860;4.286;2023-07-02T00:55:30;17.90;99.90
22738;DHT22;11536;50.860;4.286;2023-07-02T00:57:55;17.90;99.90
22738;DHT22;11536;50.860;4.286;2023-07-02T01:00:22;17.90;99.90
22738;DHT22;11536;50.860;4.286;2023-07-02T01:02:55;17.90;99.90
22738;DHT22;11536;50.860;4.286;2023-07-02T01:05:25;17.90;99.90
22738;DHT22;11536;50.860;4.286;2023-07-02T01:07:51;17.90;99.90
22738;DHT22;11536;50.860;4.286;2023-07-02T01:10:17;17.90;99.90
22738;DHT22;11536;50.860;4.286;2023-07-02T01:12:43;17.90;99.90
22738;DHT22;11536;50.860;4.286;2023-07-02T01:15:10;17.90;99.90
22738;DHT22;11536;50.860;4.286;2023-07-02T01:17:36;17.90;99.90
22738;DHT22;11536;50.860;4.286;2023-07-02T01:20:09;17.90;99.90
22738;DHT22;11536;50.860;4.286;2023-07-02T01:22:35;17.80;99.90
22738;DHT22;11536;50.860;4.286;2023-07-02T01:25:01;17.90;99.90
22738;DHT22;11536;50.860;4.286;2023-07-02T01:27:30;17.80;99.90
22738;DHT22;11536;50.860;4.286;2023-07-02T01:29:56;17.80;99.90
22738;DHT22;11536;50.860;4.286;2023-07-02T01:32:22;17.90;99.90
22738;DHT22;11536;50.860;4.286;2023-07-02T01:34:48;17.90;99.90
22738;DHT22;11536;50.860;4.286;2023-07-02T01:37:15;17.90;99.90
22738;DHT22;11536;50.860;4.286;2023-07-02T01:39:42;17.90;99.90
22738;DHT22;11536;50.860;4.286;2023-07-02T01:42:12;17.90;99.90
22738;DHT22;11536;50.860;4.286;2023-07-02T01:44:41;17.90;99.90
22738;DHT22;11536;50.860;4.286;2023-07-02T01:47:07;17.90;99.90
22738;DHT22;11536;50.860;4.286;2023-07-02T01:49:33;17.90;99.90
22738;DHT22;11536;50.860;4.286;2023-07-02T01:51:58;17.90;99.90
22738;DHT22;11536;50.860;4.286;2023-07-02T01:54:26;17.90;99.90
22738;DHT22;11536;50.860;4.286;2023-07-02T01:56:53;17.90;99.90
22738;DHT22;11536;50.860;4.286;2023-07-02T01:59:18;17.90;99.90
22738;DHT22;11536;50.860;4.286;2023-07-02T02:01:44;17.90;99.90
22738;DHT22;11536;50.860;4.286;2023-07-02T02:04:10;17.90;99.90
22738;DHT22;11536;50.860;4.286;2023-07-02T02:06:37;17.90;99.90
22738;DHT22;11536;50.860;4.286;2023-07-02T02:09:03;17.90;99.90
22738;DHT22;11536;50.860;4.286;2023-07-02T02:11:39;17.90;99.90
22738;DHT22;11536;50.860;4.286;2023-07-02T02:14:05;17.90;99.90
22738;DHT22;11536;50.860;4.286;2023-07-02T02:16:31;17.90;99.90
22738;DHT22;11536;50.860;4.286;2023-07-02T02:18:59;17.90;99.90
22738;DHT22;11536;50.860;4.286;2023-07-02T02:21:25;17.90;99.90
22738;DHT22;11536;50.860;4.286;2023-07-02T02:23:51;17.90;99.90
22738;DHT22;11536;50.860;4.286;2023-07-02T02:26:16;17.90;99.90
22738;DHT22;11536;50.860;4.286;2023-07-02T02:28:42;17.90;99.90
22738;DHT22;11536;50.860;4.286;2023-07-02T02:31:08;17.90;99.90
22738;DHT22;11536;50.860;4.286;2023-07-02T02:33:34;17.90;99.90
22738;DHT22;11536;50.860;4.286;2023-07-02T02:36:01;17.90;99.90
22738;DHT22;11536;50.860;4.286;2023-07-02T02:38:27;17.90;99.90
22738;DHT22;11536;50.860;4.286;2023-07-02T02:40:52;17.80;99.90
22738;DHT22;11536;50.860;4.286;2023-07-02T02:43:18;17.80;99.90
22738;DHT22;11536;50.860;4.286;2023-07-02T02:45:44;17.80;99.90
22738;DHT22;11536;50.860;4.286;2023-07-02T02:48:10;17.80;99.90
22738;DHT22;11536;50.860;4.286;2023-07-02T02:50:36;17.80;99.90
22738;DHT22;11536;50.860;4.286;2023-07-02T02:53:03;17.70;99.90
22738;DHT22;11536;50.860;4.286;2023-07-02T02:55:29;17.70;99.90
22738;DHT22;11536;50.860;4.286;2023-07-02T02:57:54;17.70;99.90
22738;DHT22;11536;50.860;4.286;2023-07-02T03:00:20;17.70;99.90
22738;DHT22;11536;50.860;4.286;2023-07-02T03:02:46;17.70;99.90
22738;DHT22;11536;50.860;4.286;2023-07-02T03:05:11;17.70;99.90
22738;DHT22;11536;50.860;4.286;2023-07-02T03:07:38;17.70;99.90
22738;DHT22;11536;50.860;4.286;2023-07-02T03:10:04;17.70;99.90
22738;DHT22;11536;50.860;4.286;2023-07-02T03:12:30;17.60;99.90
22738;DHT22;11536;50.860;4.286;2023-07-02T03:14:55;17.60;99.90
22738;DHT22;11536;50.860;4.286;2023-07-02T03:17:21;17.60;99.90
22738;DHT22;11536;50.860;4.286;2023-07-02T03:19:47;17.60;99.90
22738;DHT22;11536;50.860;4.286;2023-07-02T03:22:13;17.60;99.90
22738;DHT22;11536;50.860;4.286;2023-07-02T03:24:38;17.60;99.90
22738;DHT22;11536;50.860;4.286;2023-07-02T03:27:04;17.60;99.90
22738;DHT22;11536;50.860;4.286;2023-07-02T03:29:30;17.60;99.90
22738;DHT22;11536;50.860;4.286;2023-07-02T03:31:56;17.60;99.90
22738;DHT22;11536;50.860;4.286;2023-07-02T03:34:22;17.50;99.90
22738;DHT22;11536;50.860;4.286;2023-07-02T03:36:49;17.50;99.90
22738;DHT22;11536;50.860;4.286;2023-07-02T03:39:15;17.50;99.90
22738;DHT22;11536;50.860;4.286;2023-07-02T03:41:41;17.50;99.90
22738;DHT22;11536;50.860;4.286;2023-07-02T03:44:07;17.50;99.90
22738;DHT22;11536;50.860;4.286;2023-07-02T03:46:33;17.40;99.90
22738;DHT22;11536;50.860;4.286;2023-07-02T03:48:58;17.40;99.90
22738;DHT22;11536;50.860;4.286;2023-07-02T03:51:24;17.40;99.90
22738;DHT22;11536;50.860;4.286;2023-07-02T03:53:50;17.40;99.90
22738;DHT22;11536;50.860;4.286;2023-07-02T03:56:15;17.40;99.90
22738;DHT22;11536;50.860;4.286;2023-07-02T03:58:41;17.30;99.90
22738;DHT22;11536;50.860;4.286;2023-07-02T04:01:06;17.30;99.90
22738;DHT22;11536;50.860;4.286;2023-07-02T04:03:32;17.30;99.90
22738;DHT22;11536;50.860;4.286;2023-07-02T04:05:58;17.30;99.90
22738;DHT22;11536;50.860;4.286;2023-07-02T04:08:23;17.30;99.90
22738;DHT22;11536;50.860;4.286;2023-07-02T04:10:54;17.20;99.90
22738;DHT22;11536;50.860;4.286;2023-07-02T04:13:19;17.20;99.90
22738;DHT22;11536;50.860;4.286;2023-07-02T04:15:45;17.20;99.90
22738;DHT22;11536;50.860;4.286;2023-07-02T04:18:11;17.20;99.90
22738;DHT22;11536;50.860;4.286;2023-07-02T04:20:36;17.20;99.90
22738;DHT22;11536;50.860;4.286;2023-07-02T04:23:04;17.20;99.90
22738;DHT22;11536;50.860;4.286;2023-07-02T04:25:30;17.20;99.90
22738;DHT22;11536;50.860;4.286;2023-07-02T04:27:56;17.10;99.90
22738;DHT22;11536;50.860;4.286;2023-07-02T04:30:22;17.10;99.90
22738;DHT22;11536;50.860;4.286;2023-07-02T04:32:48;17.10;99.90
22738;DHT22;11536;50.860;4.286;2023-07-02T04:35:13;17.10;99.90
22738;DHT22;11536;50.860;4.286;2023-07-02T04:37:39;17.10;99.90
22738;DHT22;11536;50.860;4.286;2023-07-02T04:40:05;17.00;99.90
22738;DHT22;11536;50.860;4.286;2023-07-02T04:42:42;17.00;99.90
22738;DHT22;11536;50.860;4.286;2023-07-02T04:45:12;17.00;99.90
22738;DHT22;11536;50.860;4.286;2023-07-02T04:47:38;17.10;99.90
22738;DHT22;11536;50.860;4.286;2023-07-02T04:50:04;17.00;99.90
22738;DHT22;11536;50.860;4.286;2023-07-02T04:52:31;17.00;99.90
22738;DHT22;11536;50.860;4.286;2023-07-02T04:54:57;17.00;99.90
22738;DHT22;11536;50.860;4.286;2023-07-02T04:57:22;17.10;99.90
22738;DHT22;11536;50.860;4.286;2023-07-02T04:59:48;17.00;99.90
22738;DHT22;11536;50.860;4.286;2023-07-02T05:02:14;17.00;99.90
22738;DHT22;11536;50.860;4.286;2023-07-02T05:04:40;17.10;99.90
22738;DHT22;11536;50.860;4.286;2023-07-02T05:07:05;17.10;99.90
22738;DHT22;11536;50.860;4.286;2023-07-02T05:09:31;17.10;99.90
22738;DHT22;11536;50.860;4.286;2023-07-02T05:11:57;17.10;99.90
22738;DHT22;11536;50.860;4.286;2023-07-02T05:14:23;17.10;99.90
22738;DHT22;11536;50.860;4.286;2023-07-02T05:16:49;17.10;99.90
22738;DHT22;11536;50.860;4.286;2023-07-02T05:19:15;17.10;99.90
22738;DHT22;11536;50.860;4.286;2023-07-02T05:21:41;17.10;99.90
22738;DHT22;11536;50.860;4.286;2023-07-02T05:24:08;17.10;99.90
22738;DHT22;11536;50.860;4.286;2023-07-02T05:26:34;17.20;99.90
22738;DHT22;11536;50.860;4.286;2023-07-02T05:29:01;17.20;99.90
22738;DHT22;11536;50.860;4.286;2023-07-02T05:31:26;17.20;99.90
22738;DHT22;11536;50.860;4.286;2023-07-02T05:33:53;17.20;99.90
22738;DHT22;11536;50.860;4.286;2023-07-02T05:36:19;17.30;99.90
22738;DHT22;11536;50.860;4.286;2023-07-02T05:38:44;17.30;99.90
22738;DHT22;11536;50.860;4.286;2023-07-02T05:41:10;17.30;99.90
22738;DHT22;11536;50.860;4.286;2023-07-02T05:43:36;17.30;99.90
22738;DHT22;11536;50.860;4.286;2023-07-02T05:46:01;17.30;99.90
22738;DHT22;11536;50.860;4.286;2023-07-02T05:48:27;17.30;99.90
22738;DHT22;11536;50.860;4.286;2023-07-02T05:50:53;17.40;99.90
22738;DHT22;11536;50.860;4.286;2023-07-02T05:53:19;17.40;99.90
22738;DHT22;11536;50.860;4.286;2023-07-02T05:55:45;17.40;99.90
22738;DHT22;11536;50.860;4.286;2023-07-02T05:58:11;17.50;99.90
22738;DHT22;11536;50.860;4.286;2023-07-02T06:00:36;17.50;99.90
22738;DHT22;11536;50.860;4.286;2023-07-02T06:03:02;17.50;99.90
22738;DHT22;11536;50.860;4.286;2023-07-02T06:05:28;17.60;99.90
22738;DHT22;11536;50.860;4.286;2023-07-02T06:07:53;17.60;99.90
22738;DHT22;11536;50.860;4.286;2023-07-02T06:10:19;17.70;99.90
22738;DHT22;11536;50.860;4.286;2023-07-02T06:12:44;17.70;99.90
22738;DHT22;11536;50.860;4.286;2023-07-02T06:15:10;17.80;99.90
22738;DHT22;11536;50.860;4.286;2023-07-02T06:17:36;17.80;99.90
22738;DHT22;11536;50.860;4.286;2023-07-02T06:20:05;17.80;99.90
22738;DHT22;11536;50.860;4.286;2023-07-02T06:22:31;17.80;99.90
22738;DHT22;11536;50.860;4.286;2023-07-02T06:24:57;17.90;99.90
22738;DHT22;11536;50.860;4.286;2023-07-02T06:27:22;17.90;99.90
22738;DHT22;11536;50.860;4.286;2023-07-02T06:29:48;17.90;99.90
22738;DHT22;11536;50.860;4.286;2023-07-02T06:32:15;17.90;99.90
22738;DHT22;11536;50.860;4.286;2023-07-02T06:34:40;17.90;99.90
22738;DHT22;11536;50.860;4.286;2023-07-02T06:37:06;17.90;99.90
22738;DHT22;11536;50.860;4.286;2023-07-02T06:39:31;18.00;99.90
22738;DHT22;11536;50.860;4.286;2023-07-02T06:41:57;18.00;99.90
22738;DHT22;11536;50.860;4.286;2023-07-02T06:44:23;18.00;99.90
22738;DHT22;11536;50.860;4.286;2023-07-02T06:46:48;18.10;99.90
22738;DHT22;11536;50.860;4.286;2023-07-02T06:49:14;18.10;99.90
22738;DHT22;11536;50.860;4.286;2023-07-02T06:51:39;18.20;99.90
22738;DHT22;11536;50.860;4.286;2023-07-02T06:54:05;18.20;99.90
22738;DHT22;11536;50.860;4.286;2023-07-02T06:56:31;18.30;99.90
22738;DHT22;11536;50.860;4.286;2023-07-02T06:58:58;18.30;99.90
22738;DHT22;11536;50.860;4.286;2023-07-02T07:01:23;18.30;99.90
22738;DHT22;11536;50.860;4.286;2023-07-02T07:03:49;18.30;99.90
22738;DHT22;11536;50.860;4.286;2023-07-02T07:06:14;18.30;99.90
22738;DHT22;11536;50.860;4.286;2023-07-02T07:08:40;18.30;99.90
22738;DHT22;11536;50.860;4.286;2023-07-02T07:11:06;18.30;99.90
22738;DHT22;11536;50.860;4.286;2023-07-02T07:13:32;18.30;99.90
22738;DHT22;11536;50.860;4.286;2023-07-02T07:15:58;18.40;99.90
22738;DHT22;11536;50.860;4.286;2023-07-02T07:18:23;18.40;99.90
22738;DHT22;11536;50.860;4.286;2023-07-02T07:20:49;18.40;99.90
22738;DHT22;11536;50.860;4.286;2023-07-02T07:23:15;18.40;99.90
22738;DHT22;11536;50.860;4.286;2023-07-02T07:25:42;18.40;99.90
22738;DHT22;11536;50.860;4.286;2023-07-02T07:28:08;18.50;99.90
22738;DHT22;11536;50.860;4.286;2023-07-02T07:30:37;18.50;99.90
22738;DHT22;11536;50.860;4.286;2023-07-02T07:33:03;18.50;99.90
22738;DHT22;11536;50.860;4.286;2023-07-02T07:35:28;18.50;99.90
22738;DHT22;11536;50.860;4.286;2023-07-02T07:37:54;18.60;99.90
22738;DHT22;11536;50.860;4.286;2023-07-02T07:40:19;18.50;99.90
22738;DHT22;11536;50.860;4.286;2023-07-02T07:42:45;18.50;99.90
22738;DHT22;11536;50.860;4.286;2023-07-02T07:45:11;18.60;99.90
22738;DHT22;11536;50.860;4.286;2023-07-02T07:47:37;18.60;99.90
22738;DHT22;11536;50.860;4.286;2023-07-02T07:50:02;18.60;99.90
22738;DHT22;11536;50.860;4.286;2023-07-02T07:52:34;18.60;99.90
22738;DHT22;11536;50.860;4.286;2023-07-02T07:54:59;18.60;99.90
22738;DHT22;11536;50.860;4.286;2023-07-02T07:57:25;18.60;99.90
22738;DHT22;11536;50.860;4.286;2023-07-02T07:59:51;18.60;99.90
22738;DHT22;11536;50.860;4.286;2023-07-02T08:02:16;18.60;99.90
22738;DHT22;11536;50.860;4.286;2023-07-02T08:04:42;18.70;99.90
22738;DHT22;11536;50.860;4.286;2023-07-02T08:07:07;18.80;99.90
22738;DHT22;11536;50.860;4.286;2023-07-02T08:09:34;18.80;99.90
22738;DHT22;11536;50.860;4.286;2023-07-02T08:12:00;18.80;99.90
22738;DHT22;11536;50.860;4.286;2023-07-02T08:14:26;18.80;99.90
22738;DHT22;11536;50.860;4.286;2023-07-02T08:16:51;18.90;99.90
22738;DHT22;11536;50.860;4.286;2023-07-02T08:19:17;18.90;99.90
22738;DHT22;11536;50.860;4.286;2023-07-02T08:21:43;19.00;99.90
22738;DHT22;11536;50.860;4.286;2023-07-02T08:24:09;19.00;99.90
22738;DHT22;11536;50.860;4.286;2023-07-02T08:26:34;19.00;99.90
22738;DHT22;11536;50.860;4.286;2023-07-02T08:29:00;19.10;99.90
22738;DHT22;11536;50.860;4.286;2023-07-02T08:31:26;19.10;99.90
22738;DHT22;11536;50.860;4.286;2023-07-02T08:33:52;19.10;99.90
22738;DHT22;11536;50.860;4.286;2023-07-02T08:36:17;19.10;99.90
22738;DHT22;11536;50.860;4.286;2023-07-02T08:38:43;19.20;99.90
22738;DHT22;11536;50.860;4.286;2023-07-02T08:41:09;19.20;99.90
22738;DHT22;11536;50.860;4.286;2023-07-02T08:43:36;19.30;99.90
22738;DHT22;11536;50.860;4.286;2023-07-02T08:46:02;19.20;99.90
22738;DHT22;11536;50.860;4.286;2023-07-02T08:48:28;19.20;99.90
22738;DHT22;11536;50.860;4.286;2023-07-02T08:50:57;19.20;99.90
22738;DHT22;11536;50.860;4.286;2023-07-02T08:53:23;19.20;99.90
22738;DHT22;11536;50.860;4.286;2023-07-02T08:55:55;19.30;99.90
22738;DHT22;11536;50.860;4.286;2023-07-02T08:58:21;19.30;99.90
22738;DHT22;11536;50.860;4.286;2023-07-02T09:01:06;19.40;99.90
22738;DHT22;11536;50.860;4.286;2023-07-02T09:03:33;19.40;99.90
22738;DHT22;11536;50.860;4.286;2023-07-02T09:05:59;19.40;99.90
22738;DHT22;11536;50.860;4.286;2023-07-02T09:08:25;19.40;99.90
22738;DHT22;11536;50.860;4.286;2023-07-02T09:10:51;19.40;99.90
22738;DHT22;11536;50.860;4.286;2023-07-02T09:13:17;19.40;99.90
22738;DHT22;11536;50.860;4.286;2023-07-02T09:15:43;19.40;99.90
22738;DHT22;11536;50.860;4.286;2023-07-02T09:18:16;19.40;99.90
22738;DHT22;11536;50.860;4.286;2023-07-02T09:20:42;19.40;99.90
22738;DHT22;11536;50.860;4.286;2023-07-02T09:23:08;19.40;99.90
22738;DHT22;11536;50.860;4.286;2023-07-02T09:25:37;19.40;99.90
22738;DHT22;11536;50.860;4.286;2023-07-02T09:28:18;19.40;99.90
22738;DHT22;11536;50.860;4.286;2023-07-02T09:30:55;19.40;99.90
22738;DHT22;11536;50.860;4.286;2023-07-02T09:33:29;19.50;99.90
22738;DHT22;11536;50.860;4.286;2023-07-02T09:35:57;19.50;99.90
22738;DHT22;11536;50.860;4.286;2023-07-02T09:38:36;19.50;99.90
22738;DHT22;11536;50.860;4.286;2023-07-02T09:41:03;19.50;99.90
22738;DHT22;11536;50.860;4.286;2023-07-02T09:43:31;19.60;99.90
22738;DHT22;11536;50.860;4.286;2023-07-02T09:45:58;19.60;99.90
22738;DHT22;11536;50.860;4.286;2023-07-02T09:48:38;19.50;99.90
22738;DHT22;11536;50.860;4.286;2023-07-02T09:51:04;19.50;99.90
22738;DHT22;11536;50.860;4.286;2023-07-02T09:53:30;19.50;99.90
22738;DHT22;11536;50.860;4.286;2023-07-02T09:55:59;19.50;99.90
22738;DHT22;11536;50.860;4.286;2023-07-02T09:58:26;19.50;99.90
22738;DHT22;11536;50.860;4.286;2023-07-02T10:01:00;19.60;99.90
22738;DHT22;11536;50.860;4.286;2023-07-02T10:03:46;19.60;99.90
22738;DHT22;11536;50.860;4.286;2023-07-02T10:06:17;19.60;99.90
22738;DHT22;11536;50.860;4.286;2023-07-02T10:08:56;19.70;99.90
22738;DHT22;11536;50.860;4.286;2023-07-02T10:11:33;19.70;99.90
22738;DHT22;11536;50.860;4.286;2023-07-02T10:14:02;19.70;99.90
22738;DHT22;11536;50.860;4.286;2023-07-02T10:16:28;19.80;99.90
22738;DHT22;11536;50.860;4.286;2023-07-02T10:19:11;19.80;99.90
22738;DHT22;11536;50.860;4.286;2023-07-02T10:21:37;19.80;99.90
22738;DHT22;11536;50.860;4.286;2023-07-02T10:24:13;19.80;99.90
22738;DHT22;11536;50.860;4.286;2023-07-02T10:27:00;19.80;99.90
22738;DHT22;11536;50.860;4.286;2023-07-02T10:29:28;19.80;99.90
22738;DHT22;11536;50.860;4.286;2023-07-02T10:32:07;19.80;99.90
22738;DHT22;11536;50.860;4.286;2023-07-02T10:34:35;19.90;99.90
22738;DHT22;11536;50.860;4.286;2023-07-02T10:37:01;19.90;99.90
22738;DHT22;11536;50.860;4.286;2023-07-02T10:39:31;19.90;99.90
22738;DHT22;11536;50.860;4.286;2023-07-02T10:42:10;19.90;99.90
22738;DHT22;11536;50.860;4.286;2023-07-02T10:44:47;20.00;99.90
22738;DHT22;11536;50.860;4.286;2023-07-02T10:47:19;20.00;99.90
22738;DHT22;11536;50.860;4.286;2023-07-02T10:49:45;20.00;99.90
22738;DHT22;11536;50.860;4.286;2023-07-02T10:52:11;20.10;99.90
22738;DHT22;11536;50.860;4.286;2023-07-02T10:54:50;20.10;99.90
22738;DHT22;11536;50.860;4.286;2023-07-02T10:57:25;20.10;99.90
22738;DHT22;11536;50.860;4.286;2023-07-02T10:59:51;20.20;99.90
22738;DHT22;11536;50.860;4.286;2023-07-02T11:02:17;20.20;99.90
22738;DHT22;11536;50.860;4.286;2023-07-02T11:04:43;20.20;99.90
22738;DHT22;11536;50.860;4.286;2023-07-02T11:07:10;20.20;99.90
22738;DHT22;11536;50.860;4.286;2023-07-02T11:09:36;20.20;99.90
22738;DHT22;11536;50.860;4.286;2023-07-02T11:12:08;20.20;99.90
22738;DHT22;11536;50.860;4.286;2023-07-02T11:14:35;20.20;99.90
22738;DHT22;11536;50.860;4.286;2023-07-02T11:17:06;20.20;99.90
22738;DHT22;11536;50.860;4.286;2023-07-02T11:19:32;20.10;99.90
22738;DHT22;11536;50.860;4.286;2023-07-02T11:21:58;20.10;99.90
22738;DHT22;11536;50.860;4.286;2023-07-02T11:24:36;20.20;99.90
22738;DHT22;11536;50.860;4.286;2023-07-02T11:27:03;20.30;99.90
22738;DHT22;11536;50.860;4.286;2023-07-02T11:29:31;20.40;99.90
22738;DHT22;11536;50.860;4.286;2023-07-02T11:32:12;20.50;99.90
22738;DHT22;11536;50.860;4.286;2023-07-02T11:34:39;20.60;99.90
22738;DHT22;11536;50.860;4.286;2023-07-02T11:37:06;20.70;99.90
22738;DHT22;11536;50.860;4.286;2023-07-02T11:39:32;20.70;99.90
22738;DHT22;11536;50.860;4.286;2023-07-02T11:41:57;20.80;99.90
22738;DHT22;11536;50.860;4.286;2023-07-02T11:44:23;20.80;99.90
22738;DHT22;11536;50.860;4.286;2023-07-02T11:46:49;20.80;99.90
22738;DHT22;11536;50.860;4.286;2023-07-02T11:49:15;20.80;99.90
22738;DHT22;11536;50.860;4.286;2023-07-02T11:51:42;20.80;99.90
22738;DHT22;11536;50.860;4.286;2023-07-02T11:54:14;20.80;99.90
22738;DHT22;11536;50.860;4.286;2023-07-02T11:56:40;20.90;99.90
22738;DHT22;11536;50.860;4.286;2023-07-02T11:59:08;20.90;99.90
22738;DHT22;11536;50.860;4.286;2023-07-02T12:01:33;21.00;99.90
22738;DHT22;11536;50.860;4.286;2023-07-02T12:03:59;21.20;99.90
22738;DHT22;11536;50.860;4.286;2023-07-02T12:06:24;21.20;99.90
22738;DHT22;11536;50.860;4.286;2023-07-02T12:08:53;21.30;99.90
22738;DHT22;11536;50.860;4.286;2023-07-02T12:11:19;21.30;99.90
22738;DHT22;11536;50.860;4.286;2023-07-02T12:13:45;21.40;99.90
22738;DHT22;11536;50.860;4.286;2023-07-02T12:17:01;21.40;99.90
22738;DHT22;11536;50.860;4.286;2023-07-02T12:19:23;21.40;99.90
22738;DHT22;11536;50.860;4.286;2023-07-02T12:21:49;21.30;99.90
22738;DHT22;11536;50.860;4.286;2023-07-02T12:24:15;21.30;99.90
22738;DHT22;11536;50.860;4.286;2023-07-02T12:26:42;21.20;99.90
22738;DHT22;11536;50.860;4.286;2023-07-02T12:29:08;21.30;99.90
22738;DHT22;11536;50.860;4.286;2023-07-02T12:31:36;21.40;99.90
22738;DHT22;11536;50.860;4.286;2023-07-02T12:34:05;21.30;99.90
22738;DHT22;11536;50.860;4.286;2023-07-02T12:36:30;21.30;99.90
22738;DHT22;11536;50.860;4.286;2023-07-02T12:38:56;21.40;99.90
22738;DHT22;11536;50.860;4.286;2023-07-02T12:41:25;21.50;99.90
22738;DHT22;11536;50.860;4.286;2023-07-02T12:43:53;21.60;99.90
22738;DHT22;11536;50.860;4.286;2023-07-02T12:46:22;21.60;99.90
22738;DHT22;11536;50.860;4.286;2023-07-02T12:48:52;21.50;99.90
22738;DHT22;11536;50.860;4.286;2023-07-02T12:51:21;21.60;99.90
22738;DHT22;11536;50.860;4.286;2023-07-02T12:53:47;21.60;99.90
22738;DHT22;11536;50.860;4.286;2023-07-02T12:56:13;21.70;99.90
22738;DHT22;11536;50.860;4.286;2023-07-02T12:58:38;21.80;99.90
22738;DHT22;11536;50.860;4.286;2023-07-02T13:01:04;22.00;99.90
22738;DHT22;11536;50.860;4.286;2023-07-02T13:03:30;22.00;99.90
22738;DHT22;11536;50.860;4.286;2023-07-02T13:05:56;22.10;99.90
22738;DHT22;11536;50.860;4.286;2023-07-02T13:08:22;22.20;99.90
22738;DHT22;11536;50.860;4.286;2023-07-02T13:10:47;22.30;99.90
22738;DHT22;11536;50.860;4.286;2023-07-02T13:13:13;22.30;99.90
22738;DHT22;11536;50.860;4.286;2023-07-02T13:15:39;22.30;99.90
22738;DHT22;11536;50.860;4.286;2023-07-02T13:18:04;22.40;99.90
22738;DHT22;11536;50.860;4.286;2023-07-02T13:20:30;22.50;99.90
22738;DHT22;11536;50.860;4.286;2023-07-02T13:22:55;22.60;99.90
22738;DHT22;11536;50.860;4.286;2023-07-02T13:25:21;22.60;99.90
22738;DHT22;11536;50.860;4.286;2023-07-02T13:27:47;22.70;99.90
22738;DHT22;11536;50.860;4.286;2023-07-02T13:30:12;22.80;99.90
22738;DHT22;11536;50.860;4.286;2023-07-02T13:32:38;22.90;99.90
22738;DHT22;11536;50.860;4.286;2023-07-02T13:35:04;22.90;99.90
22738;DHT22;11536;50.860;4.286;2023-07-02T13:37:29;22.90;99.90
22738;DHT22;11536;50.860;4.286;2023-07-02T13:39:55;22.80;99.90
22738;DHT22;11536;50.860;4.286;2023-07-02T13:42:21;22.90;99.90
22738;DHT22;11536;50.860;4.286;2023-07-02T13:44:46;22.90;99.90
22738;DHT22;11536;50.860;4.286;2023-07-02T13:47:12;22.90;99.90
22738;DHT22;11536;50.860;4.286;2023-07-02T13:49:37;23.00;99.90
22738;DHT22;11536;50.860;4.286;2023-07-02T13:52:03;23.10;99.90
22738;DHT22;11536;50.860;4.286;2023-07-02T13:54:29;23.10;99.90
22738;DHT22;11536;50.860;4.286;2023-07-02T13:56:56;23.10;99.90
22738;DHT22;11536;50.860;4.286;2023-07-02T13:59:23;23.20;99.90
22738;DHT22;11536;50.860;4.286;2023-07-02T14:01:48;23.10;99.90
22738;DHT22;11536;50.860;4.286;2023-07-02T14:04:15;23.10;99.90
22738;DHT22;11536;50.860;4.286;2023-07-02T14:06:41;23.20;99.90
22738;DHT22;11536;50.860;4.286;2023-07-02T14:09:07;23.30;99.90
22738;DHT22;11536;50.860;4.286;2023-07-02T14:11:35;23.30;99.90
22738;DHT22;11536;50.860;4.286;2023-07-02T14:14:01;23.30;99.90
22738;DHT22;11536;50.860;4.286;2023-07-02T14:16:26;23.30;99.90
22738;DHT22;11536;50.860;4.286;2023-07-02T14:18:52;23.10;99.90
22738;DHT22;11536;50.860;4.286;2023-07-02T14:21:18;23.10;99.90
22738;DHT22;11536;50.860;4.286;2023-07-02T14:23:44;23.10;99.90
22738;DHT22;11536;50.860;4.286;2023-07-02T14:26:10;23.00;99.90
22738;DHT22;11536;50.860;4.286;2023-07-02T14:28:36;23.00;99.90
22738;DHT22;11536;50.860;4.286;2023-07-02T14:31:04;23.10;99.90
22738;DHT22;11536;50.860;4.286;2023-07-02T14:33:32;23.00;99.90
22738;DHT22;11536;50.860;4.286;2023-07-02T14:35:59;23.10;99.90
22738;DHT22;11536;50.860;4.286;2023-07-02T14:38:25;23.00;99.90
22738;DHT22;11536;50.860;4.286;2023-07-02T14:40:53;23.00;99.90
22738;DHT22;11536;50.860;4.286;2023-07-02T14:43:19;23.00;99.90
22738;DHT22;11536;50.860;4.286;2023-07-02T14:45:50;23.00;99.90
22738;DHT22;11536;50.860;4.286;2023-07-02T14:48:16;23.00;99.90
22738;DHT22;11536;50.860;4.286;2023-07-02T14:50:52;22.90;99.90
22738;DHT22;11536;50.860;4.286;2023-07-02T14:53:18;22.90;99.90
22738;DHT22;11536;50.860;4.286;2023-07-02T14:55:45;22.90;99.90
22738;DHT22;11536;50.860;4.286;2023-07-02T14:58:12;22.90;99.90
22738;DHT22;11536;50.860;4.286;2023-07-02T15:00:50;23.00;99.90
22738;DHT22;11536;50.860;4.286;2023-07-02T15:03:16;23.10;99.90
22738;DHT22;11536;50.860;4.286;2023-07-02T15:05:43;23.00;99.90
22738;DHT22;11536;50.860;4.286;2023-07-02T15:08:09;23.00;99.90
22738;DHT22;11536;50.860;4.286;2023-07-02T15:10:35;22.90;99.90
22738;DHT22;11536;50.860;4.286;2023-07-02T15:13:04;22.90;99.90
22738;DHT22;11536;50.860;4.286;2023-07-02T15:15:30;22.90;99.90
22738;DHT22;11536;50.860;4.286;2023-07-02T15:17:56;22.90;99.90
22738;DHT22;11536;50.860;4.286;2023-07-02T15:20:21;22.90;99.90
22738;DHT22;11536;50.860;4.286;2023-07-02T15:22:47;22.90;99.90
22738;DHT22;11536;50.860;4.286;2023-07-02T15:25:13;22.90;99.90
22738;DHT22;11536;50.860;4.286;2023-07-02T15:27:38;22.90;99.90
22738;DHT22;11536;50.860;4.286;2023-07-02T15:30:04;22.90;99.90